Time;durP1;ratioP1;P1;durP2;ratioP2;P2;SDS_P1;SDS_P2;PMS_P1;PMS_P2;Temp;Humidity;BMP_temperature;BMP_pressure;BME280_temperature;BME280_humidity;BME280_pressure;Samples;Min_cycle;Max_cycle;Signal;HPM_P1;HPM_P2
2022/06/21 00:01:02;;;;;;;;;;;22.30;60.00;;;;;;5003180;28;87076;-36
2022/06/21 00:03:28;;;;;;;;;;;22.30;60.00;;;;;;5003194;28;87321;-36
2022/06/21 00:05:54;;;;;;;;;;;22.20;59.90;;;;;;5002227;28;89152;-36
2022/06/21 00:08:21;;;;;;;;;;;22.20;59.90;;;;;;5005908;28;86911;-37
2022/06/21 00:10:46;;;;;;;;;;;22.30;59.90;;;;;;5001277;28;88112;-36
2022/06/21 00:13:13;;;;;;;;;;;22.20;59.90;;;;;;5002898;28;87109;-36
2022/06/21 00:15:40;;;;;;;;;;;22.20;59.80;;;;;;5003020;28;87953;-36
2022/06/21 00:18:08;;;;;;;;;;;22.20;59.80;;;;;;5002098;28;88338;-36
2022/06/21 00:20:34;;;;;;;;;;;22.20;59.70;;;;;;5002995;28;87163;-36
2022/06/21 00:22:59;;;;;;;;;;;22.20;59.60;;;;;;5003380;28;86439;-36
2022/06/21 00:25:26;;;;;;;;;;;22.20;59.60;;;;;;5001956;28;89645;-36
2022/06/21 00:27:52;;;;;;;;;;;22.20;59.70;;;;;;5002796;28;87147;-36
2022/06/21 00:30:18;;;;;;;;;;;22.10;59.80;;;;;;5004601;28;87986;-36
2022/06/21 00:32:44;;;;;;;;;;;22.10;59.60;;;;;;5002706;28;87139;-36
2022/06/21 00:35:11;;;;;;;;;;;22.20;59.80;;;;;;5002833;28;87389;-36
2022/06/21 00:37:37;;;;;;;;;;;22.20;59.70;;;;;;5002088;28;89457;-36
2022/06/21 00:40:12;;;;;;;;;;;22.10;59.60;;;;;;5002387;28;87594;-36
2022/06/21 00:42:39;;;;;;;;;;;22.10;59.60;;;;;;5002754;28;88748;-36
2022/06/21 00:45:07;;;;;;;;;;;22.10;59.60;;;;;;5002358;28;88154;-36
2022/06/21 00:47:32;;;;;;;;;;;22.10;59.70;;;;;;5002930;28;86405;-36
2022/06/21 00:50:00;;;;;;;;;;;22.10;59.70;;;;;;5002137;28;87155;-36
2022/06/21 00:52:39;;;;;;;;;;;22.10;59.60;;;;;;5004731;28;88734;-36
2022/06/21 00:55:14;;;;;;;;;;;22.00;59.60;;;;;;5002155;28;87927;-36
2022/06/21 00:57:44;;;;;;;;;;;22.00;59.50;;;;;;5002057;28;88002;-36
2022/06/21 01:00:31;;;;;;;;;;;22.00;59.60;;;;;;5002166;28;87281;-36
2022/06/21 01:02:57;;;;;;;;;;;22.00;59.70;;;;;;5002358;28;87422;-36
2022/06/21 01:05:23;;;;;;;;;;;22.00;59.60;;;;;;5002006;28;88456;-36
2022/06/21 01:07:51;;;;;;;;;;;21.90;59.60;;;;;;5002271;28;87139;-36
2022/06/21 01:10:18;;;;;;;;;;;21.90;59.70;;;;;;5002151;28;87277;-36
2022/06/21 01:12:47;;;;;;;;;;;21.90;59.60;;;;;;5002349;28;87428;-36
2022/06/21 01:15:17;;;;;;;;;;;21.90;59.60;;;;;;5004858;28;87088;-36
2022/06/21 01:17:43;;;;;;;;;;;21.90;59.60;;;;;;5001396;28;88347;-37
2022/06/21 01:20:10;;;;;;;;;;;21.80;59.50;;;;;;5016873;28;87945;-37
2022/06/21 01:22:42;;;;;;;;;;;21.90;59.60;;;;;;5003884;28;88322;-36
2022/06/21 01:25:26;;;;;;;;;;;21.80;59.40;;;;;;5005340;28;88136;-36
2022/06/21 01:27:55;;;;;;;;;;;21.80;59.60;;;;;;5005591;28;87223;-36
2022/06/21 01:30:26;;;;;;;;;;;21.80;59.60;;;;;;5005102;28;87546;-36
2022/06/21 01:32:52;;;;;;;;;;;21.80;59.60;;;;;;5004984;28;89684;-37
2022/06/21 01:35:22;;;;;;;;;;;21.70;59.60;;;;;;5008371;28;87046;-37
2022/06/21 01:37:48;;;;;;;;;;;21.70;59.70;;;;;;5005653;28;87351;-36
2022/06/21 01:40:20;;;;;;;;;;;21.70;59.50;;;;;;5005408;28;87183;-37
2022/06/21 01:42:47;;;;;;;;;;;21.70;59.60;;;;;;5005268;28;87130;-37
2022/06/21 01:45:16;;;;;;;;;;;21.70;59.60;;;;;;5004147;28;88705;-36
2022/06/21 01:47:46;;;;;;;;;;;21.70;59.60;;;;;;5005180;28;87046;-36
2022/06/21 01:50:11;;;;;;;;;;;21.60;59.60;;;;;;5004741;28;86958;-36
2022/06/21 01:52:41;;;;;;;;;;;21.60;59.50;;;;;;5004761;28;88034;-36
2022/06/21 01:55:11;;;;;;;;;;;21.60;59.60;;;;;;5004954;28;87207;-36
2022/06/21 01:57:38;;;;;;;;;;;21.60;59.60;;;;;;5007878;28;87173;-36
2022/06/21 02:00:04;;;;;;;;;;;21.50;59.50;;;;;;5004910;28;87075;-36
2022/06/21 02:02:31;;;;;;;;;;;21.60;59.70;;;;;;5005243;28;87587;-36
2022/06/21 02:05:06;;;;;;;;;;;21.50;59.50;;;;;;5004518;28;87095;-36
2022/06/21 02:07:34;;;;;;;;;;;21.50;59.50;;;;;;5004835;28;87007;-36
2022/06/21 02:10:18;;;;;;;;;;;21.50;59.60;;;;;;5004174;28;87929;-36
2022/06/21 02:12:51;;;;;;;;;;;21.50;59.50;;;;;;5004670;28;88085;-36
2022/06/21 02:15:29;;;;;;;;;;;21.40;59.50;;;;;;5004723;28;87225;-36
2022/06/21 02:17:56;;;;;;;;;;;21.40;59.50;;;;;;5004932;28;87134;-36
2022/06/21 02:20:29;;;;;;;;;;;21.40;59.40;;;;;;5006938;28;89336;-36
2022/06/21 02:22:54;;;;;;;;;;;21.40;59.50;;;;;;5004730;28;87668;-36
2022/06/21 02:25:21;;;;;;;;;;;21.40;59.60;;;;;;5004396;28;88762;-36
2022/06/21 02:27:48;;;;;;;;;;;21.40;59.60;;;;;;5005105;28;86407;-36
2022/06/21 02:30:19;;;;;;;;;;;21.30;59.50;;;;;;5004724;28;87130;-36
2022/06/21 02:32:45;;;;;;;;;;;21.40;59.70;;;;;;5004097;28;87976;-36
2022/06/21 02:35:13;;;;;;;;;;;21.30;59.60;;;;;;5003131;28;88022;-36
2022/06/21 02:37:39;;;;;;;;;;;21.30;59.70;;;;;;5004461;28;88547;-36
2022/06/21 02:40:06;;;;;;;;;;;21.30;59.70;;;;;;5004230;28;87963;-36
2022/06/21 02:42:33;;;;;;;;;;;21.20;59.70;;;;;;5007425;28;87089;-36
2022/06/21 02:45:07;;;;;;;;;;;21.20;59.60;;;;;;5003832;28;88140;-36
2022/06/21 02:47:37;;;;;;;;;;;21.20;59.70;;;;;;5004117;28;87128;-36
2022/06/21 02:50:06;;;;;;;;;;;21.20;59.70;;;;;;5003584;28;87814;-36
2022/06/21 02:52:40;;;;;;;;;;;21.20;59.60;;;;;;5004028;28;88650;-36
2022/06/21 02:55:20;;;;;;;;;;;21.20;59.60;;;;;;5003930;28;87151;-37
2022/06/21 02:57:58;;;;;;;;;;;21.10;59.60;;;;;;5004226;28;87479;-37
2022/06/21 03:00:24;;;;;;;;;;;21.10;59.60;;;;;;5002901;28;89096;-36
2022/06/21 03:02:51;;;;;;;;;;;21.10;59.70;;;;;;5004234;28;86970;-36
2022/06/21 03:05:19;;;;;;;;;;;21.10;59.80;;;;;;5006570;28;87575;-36
2022/06/21 03:07:47;;;;;;;;;;;21.00;59.70;;;;;;5019390;28;87141;-36
2022/06/21 03:10:21;;;;;;;;;;;21.00;59.70;;;;;;5003957;28;87571;-36
2022/06/21 03:12:48;;;;;;;;;;;21.10;59.80;;;;;;5003577;28;87968;-36
2022/06/21 03:15:13;;;;;;;;;;;21.00;59.80;;;;;;5003907;28;87136;-36
2022/06/21 03:17:47;;;;;;;;;;;21.00;59.70;;;;;;5004419;28;87607;-36
2022/06/21 03:20:14;;;;;;;;;;;21.00;59.70;;;;;;5003630;28;88160;-36
2022/06/21 03:22:40;;;;;;;;;;;21.00;59.80;;;;;;5019038;28;87146;-36
2022/06/21 03:25:07;;;;;;;;;;;21.00;59.80;;;;;;5003136;28;87901;-36
2022/06/21 03:27:53;;;;;;;;;;;20.90;59.70;;;;;;5005976;28;89581;-36
2022/06/21 03:30:20;;;;;;;;;;;20.90;59.80;;;;;;5003648;28;87961;-36
2022/06/21 03:32:46;;;;;;;;;;;20.90;59.60;;;;;;5003283;28;88188;-36
2022/06/21 03:35:13;;;;;;;;;;;20.90;59.80;;;;;;5003637;28;86887;-36
2022/06/21 03:37:39;;;;;;;;;;;20.90;59.90;;;;;;5003416;28;87406;-36
2022/06/21 03:42:51;;;;;;;;;;;20.80;59.90;;;;;;5004126;28;86785;-36
2022/06/21 03:45:36;;;;;;;;;;;20.80;59.80;;;;;;5003189;28;86977;-36
2022/06/21 03:48:27;;;;;;;;;;;20.70;59.90;;;;;;5006156;28;87236;-36
2022/06/21 03:50:56;;;;;;;;;;;20.70;59.90;;;;;;4998130;28;88185;-36
2022/06/21 03:53:31;;;;;;;;;;;20.70;59.90;;;;;;5002714;28;87975;-36
2022/06/21 03:56:06;;;;;;;;;;;20.70;59.90;;;;;;5003546;28;87036;-39
2022/06/21 03:58:31;;;;;;;;;;;20.70;60.40;;;;;;5003242;28;87327;-36
2022/06/21 04:01:00;;;;;;;;;;;20.70;59.80;;;;;;5002817;28;88323;-36
2022/06/21 04:03:36;;;;;;;;;;;20.70;60.00;;;;;;5018310;28;87163;-36
2022/06/21 04:06:06;;;;;;;;;;;20.70;60.00;;;;;;5002875;28;88683;-36
2022/06/21 04:08:35;;;;;;;;;;;20.60;60.00;;;;;;5003538;28;86556;-36
2022/06/21 04:11:09;;;;;;;;;;;20.60;59.90;;;;;;5005722;28;87102;-36
2022/06/21 04:13:46;;;;;;;;;;;20.60;60.50;;;;;;5002682;28;88132;-36
2022/06/21 04:16:11;;;;;;;;;;;20.60;59.90;;;;;;5002509;28;87953;-36
2022/06/21 04:18:43;;;;;;;;;;;20.60;59.90;;;;;;5002815;28;88310;-36
2022/06/21 04:21:14;;;;;;;;;;;20.60;60.10;;;;;;5002722;28;88176;-36
2022/06/21 04:23:47;;;;;;;;;;;20.60;60.00;;;;;;5002923;28;87104;-36
2022/06/21 04:26:12;;;;;;;;;;;20.50;60.00;;;;;;5002743;28;87332;-36
2022/06/21 04:28:47;;;;;;;;;;;20.50;60.00;;;;;;5002666;28;87382;-36
2022/06/21 04:31:28;;;;;;;;;;;20.50;60.00;;;;;;5002744;28;87133;-36
2022/06/21 04:33:59;;;;;;;;;;;20.50;60.00;;;;;;5005595;28;86973;-36
2022/06/21 04:36:30;;;;;;;;;;;20.50;60.00;;;;;;5002783;28;87028;-36
2022/06/21 04:39:00;;;;;;;;;;;20.50;60.00;;;;;;5002722;28;87383;-36
2022/06/21 04:41:35;;;;;;;;;;;20.50;60.00;;;;;;5001478;28;88746;-36
2022/06/21 04:44:04;;;;;;;;;;;20.50;60.00;;;;;;5002501;28;87311;-36
2022/06/21 04:46:33;;;;;;;;;;;20.50;60.00;;;;;;5017808;28;88881;-36
2022/06/21 04:49:04;;;;;;;;;;;20.50;60.00;;;;;;5001642;28;88213;-36
2022/06/21 04:51:34;;;;;;;;;;;20.50;60.10;;;;;;5002247;28;87097;-36
2022/06/21 04:54:02;;;;;;;;;;;20.40;60.20;;;;;;5002359;28;87426;-37
2022/06/21 04:56:46;;;;;;;;;;;20.40;60.90;;;;;;5005094;28;88087;-36
2022/06/21 04:59:20;;;;;;;;;;;20.40;60.20;;;;;;5006243;28;86772;-36
2022/06/21 05:01:46;;;;;;;;;;;20.40;60.10;;;;;;5005715;28;87996;-36
2022/06/21 05:04:20;;;;;;;;;;;20.50;60.20;;;;;;5005902;28;87752;-36
2022/06/21 05:06:47;;;;;;;;;;;20.40;60.20;;;;;;5005362;28;88439;-36
2022/06/21 05:09:14;;;;;;;;;;;20.40;60.30;;;;;;5005575;28;88412;-36
2022/06/21 05:11:39;;;;;;;;;;;20.40;60.30;;;;;;5005709;28;86997;-36
2022/06/21 05:14:09;;;;;;;;;;;20.40;60.30;;;;;;5005706;28;87538;-36
2022/06/21 05:16:36;;;;;;;;;;;20.40;60.40;;;;;;5005276;28;87975;-36
2022/06/21 05:19:09;;;;;;;;;;;20.40;60.40;;;;;;5008264;28;87147;-36
2022/06/21 05:21:38;;;;;;;;;;;20.40;60.30;;;;;;5005241;28;89370;-36
2022/06/21 05:24:04;;;;;;;;;;;20.50;60.40;;;;;;5006115;28;86385;-36
2022/06/21 05:26:39;;;;;;;;;;;20.50;60.50;;;;;;5005222;28;88935;-36
2022/06/21 05:29:11;;;;;;;;;;;20.50;60.50;;;;;;5004964;28;88132;-36
2022/06/21 05:31:39;;;;;;;;;;;20.50;60.50;;;;;;5004592;28;88123;-36
2022/06/21 05:34:09;;;;;;;;;;;20.50;60.50;;;;;;5005411;28;89789;-36
2022/06/21 05:36:56;;;;;;;;;;;20.50;60.50;;;;;;5004950;28;87945;-36
2022/06/21 05:39:24;;;;;;;;;;;20.50;60.50;;;;;;4990841;28;87313;-35
2022/06/21 05:41:54;;;;;;;;;;;20.50;60.50;;;;;;5007872;28;87497;-36
2022/06/21 05:44:25;;;;;;;;;;;20.50;60.50;;;;;;5005127;28;86913;-36
2022/06/21 05:46:54;;;;;;;;;;;20.50;60.50;;;;;;5005229;28;89740;-36
2022/06/21 05:49:21;;;;;;;;;;;20.50;60.80;;;;;;5004491;28;87561;-36
2022/06/21 05:51:48;;;;;;;;;;;20.50;60.50;;;;;;5005169;28;87107;-36
2022/06/21 05:54:15;;;;;;;;;;;20.50;60.50;;;;;;5005354;28;87406;-36
2022/06/21 05:56:41;;;;;;;;;;;20.60;60.50;;;;;;5004003;28;88937;-36
2022/06/21 05:59:08;;;;;;;;;;;20.60;60.50;;;;;;5004980;28;87112;-36
2022/06/21 06:01:49;;;;;;;;;;;20.60;60.50;;;;;;5007690;28;87597;-36
2022/06/21 06:04:22;;;;;;;;;;;20.60;60.60;;;;;;5005021;28;87098;-36
2022/06/21 06:06:48;;;;;;;;;;;20.60;60.50;;;;;;5005151;28;87478;-36
2022/06/21 06:09:15;;;;;;;;;;;20.60;60.60;;;;;;5004525;28;88123;-36
2022/06/21 06:11:59;;;;;;;;;;;20.60;60.60;;;;;;5004919;28;87020;-36
2022/06/21 06:14:31;;;;;;;;;;;20.60;60.60;;;;;;5005586;28;87100;-36
2022/06/21 06:16:59;;;;;;;;;;;20.60;60.70;;;;;;5004429;28;89236;-37
2022/06/21 06:19:29;;;;;;;;;;;20.60;60.80;;;;;;5004927;28;87045;-36
2022/06/21 06:22:09;;;;;;;;;;;20.60;60.70;;;;;;5004277;28;88056;-36
2022/06/21 06:24:49;;;;;;;;;;;20.60;60.80;;;;;;5007080;28;89628;-36
2022/06/21 06:27:28;;;;;;;;;;;20.60;60.70;;;;;;5004870;28;87377;-36
2022/06/21 06:29:55;;;;;;;;;;;20.60;60.80;;;;;;5004266;28;88883;-36
2022/06/21 06:32:24;;;;;;;;;;;20.60;60.80;;;;;;5004649;28;87025;-36
2022/06/21 06:34:52;;;;;;;;;;;20.60;60.90;;;;;;5004568;28;87371;-36
2022/06/21 06:37:36;;;;;;;;;;;20.60;60.90;;;;;;5004005;28;88331;-35
2022/06/21 06:40:06;;;;;;;;;;;20.60;60.90;;;;;;5004984;28;86463;-36
2022/06/21 06:42:35;;;;;;;;;;;20.60;61.00;;;;;;5004294;28;88204;-36
2022/06/21 06:45:03;;;;;;;;;;;20.60;60.90;;;;;;5004025;28;87791;-36
2022/06/21 06:47:36;;;;;;;;;;;20.60;60.90;;;;;;5006552;28;87847;-36
2022/06/21 06:50:14;;;;;;;;;;;20.60;60.90;;;;;;5003158;28;88083;-36
2022/06/21 06:52:42;;;;;;;;;;;20.60;61.00;;;;;;5004008;28;87106;-36
2022/06/21 06:55:13;;;;;;;;;;;20.60;61.00;;;;;;5004011;28;87573;-36
2022/06/21 06:57:43;;;;;;;;;;;20.60;61.00;;;;;;5003800;28;88228;-36
2022/06/21 07:00:14;;;;;;;;;;;20.60;61.10;;;;;;5004254;28;87137;-36
2022/06/21 07:02:59;;;;;;;;;;;20.60;61.10;;;;;;5004182;28;87414;-35
2022/06/21 07:05:27;;;;;;;;;;;20.60;61.10;;;;;;5004328;28;87409;-36
2022/06/21 07:07:54;;;;;;;;;;;20.60;61.10;;;;;;5003972;28;87104;-36
2022/06/21 07:10:21;;;;;;;;;;;20.60;61.10;;;;;;5006501;28;87436;-36
2022/06/21 07:12:48;;;;;;;;;;;20.60;61.10;;;;;;5002974;28;87991;-36
2022/06/21 07:15:13;;;;;;;;;;;20.60;61.20;;;;;;5003587;28;88395;-36
2022/06/21 07:17:40;;;;;;;;;;;20.60;61.10;;;;;;5003626;28;87770;-36
2022/06/21 07:20:14;;;;;;;;;;;20.60;61.10;;;;;;5003197;28;87140;-36
2022/06/21 07:22:39;;;;;;;;;;;20.60;61.20;;;;;;5003885;28;87366;-36
2022/06/21 07:25:31;;;;;;;;;;;20.60;61.10;;;;;;5003371;28;87950;-36
2022/06/21 07:28:00;;;;;;;;;;;20.60;61.10;;;;;;4999616;28;87174;-36
2022/06/21 07:30:31;;;;;;;;;;;20.60;61.10;;;;;;5004161;28;88609;-36
2022/06/21 07:33:02;;;;;;;;;;;20.60;61.20;;;;;;5006267;28;87828;-36
2022/06/21 07:35:34;;;;;;;;;;;20.60;61.20;;;;;;5003444;28;88661;-36
2022/06/21 07:38:03;;;;;;;;;;;20.70;61.20;;;;;;5002160;28;90032;-36
2022/06/21 07:40:32;;;;;;;;;;;20.70;61.20;;;;;;5003730;28;87132;-36
2022/06/21 07:43:00;;;;;;;;;;;20.70;61.20;;;;;;5003373;28;87589;-36
2022/06/21 07:45:47;;;;;;;;;;;20.70;61.20;;;;;;5003165;28;87617;-36
2022/06/21 07:48:15;;;;;;;;;;;20.70;61.20;;;;;;5003327;28;87083;-36
2022/06/21 07:51:01;;;;;;;;;;;20.70;61.20;;;;;;5003159;28;86999;-36
2022/06/21 07:53:35;;;;;;;;;;;20.70;61.20;;;;;;5002014;28;88270;-36
2022/06/21 07:56:27;;;;;;;;;;;20.70;61.20;;;;;;5006992;28;86201;-36
2022/06/21 07:58:52;;;;;;;;;;;20.70;61.20;;;;;;4971048;28;87920;-36
2022/06/21 08:07:03;;;;;;;;;;;20.80;61.20;;;;;;5003188;28;87292;-36
2022/06/21 08:09:32;;;;;;;;;;;20.80;61.40;;;;;;5002619;28;87103;-36
2022/06/21 08:12:00;;;;;;;;;;;20.80;61.90;;;;;;5003156;28;87551;-36
2022/06/21 08:14:28;;;;;;;;;;;20.70;61.70;;;;;;5002557;28;89485;-36
2022/06/21 08:17:16;;;;;;;;;;;20.80;61.50;;;;;;5005847;28;86993;-36
2022/06/21 08:19:45;;;;;;;;;;;20.80;61.40;;;;;;5002404;28;88048;-36
2022/06/21 08:22:16;;;;;;;;;;;20.80;61.40;;;;;;5003462;28;86431;-36
2022/06/21 08:24:52;;;;;;;;;;;20.80;61.40;;;;;;5002894;28;87008;-36
2022/06/21 08:27:34;;;;;;;;;;;20.80;61.40;;;;;;5002568;28;88127;-36
2022/06/21 08:30:06;;;;;;;;;;;20.80;61.40;;;;;;5002100;28;87889;-36
2022/06/21 08:32:33;;;;;;;;;;;20.80;61.40;;;;;;5001914;28;89077;-36
2022/06/21 08:35:03;;;;;;;;;;;20.90;61.50;;;;;;5002395;28;87935;-36
2022/06/21 08:37:30;;;;;;;;;;;20.90;61.60;;;;;;5002393;28;87520;-36
2022/06/21 08:40:13;;;;;;;;;;;20.90;61.70;;;;;;5005002;28;89056;-36
2022/06/21 08:42:42;;;;;;;;;;;20.90;62.10;;;;;;5002651;28;87050;-36
2022/06/21 08:45:41;;;;;;;;;;;20.90;61.80;;;;;;5002542;28;88516;-36
2022/06/21 08:48:06;;;;;;;;;;;20.90;61.60;;;;;;5018073;28;88965;-36
2022/06/21 08:50:43;;;;;;;;;;;20.90;61.70;;;;;;5002193;28;87131;-36
2022/06/21 08:53:24;;;;;;;;;;;21.00;61.80;;;;;;5002316;28;87544;-36
2022/06/21 08:55:55;;;;;;;;;;;21.00;62.10;;;;;;5001548;28;89119;-36
2022/06/21 08:58:20;;;;;;;;;;;21.00;61.80;;;;;;5002169;28;86887;-36
2022/06/21 09:00:51;;;;;;;;;;;21.00;61.90;;;;;;5002609;28;87415;-36
2022/06/21 09:03:34;;;;;;;;;;;21.00;62.20;;;;;;5005055;28;88065;-36
2022/06/21 09:06:01;;;;;;;;;;;21.00;62.00;;;;;;5002260;28;87575;-36
2022/06/21 09:08:55;;;;;;;;;;;21.10;62.10;;;;;;5002050;28;88033;-36
2022/06/21 09:11:21;;;;;;;;;;;21.10;62.20;;;;;;4984637;28;87283;-36
2022/06/21 09:13:49;;;;;;;;;;;21.10;61.90;;;;;;5002719;28;87287;-36
2022/06/21 09:16:19;;;;;;;;;;;21.10;62.20;;;;;;5001862;28;88150;-36
2022/06/21 09:18:55;;;;;;;;;;;21.20;62.40;;;;;;5001917;28;87167;-36
2022/06/21 09:21:21;;;;;;;;;;;21.20;62.40;;;;;;5001662;28;87769;-36
2022/06/21 09:24:05;;;;;;;;;;;21.20;62.60;;;;;;5001426;28;89754;-36
2022/06/21 09:26:33;;;;;;;;;;;21.20;62.80;;;;;;5005188;28;87035;-36
2022/06/21 09:29:08;;;;;;;;;;;21.20;63.10;;;;;;5001362;28;88022;-36
2022/06/21 09:31:48;;;;;;;;;;;21.20;63.10;;;;;;5001890;28;87043;-36
2022/06/21 09:34:29;;;;;;;;;;;21.30;63.20;;;;;;5002212;28;87398;-37
2022/06/21 09:36:54;;;;;;;;;;;21.30;63.10;;;;;;5001852;28;87167;-36
2022/06/21 09:39:26;;;;;;;;;;;21.30;63.40;;;;;;5001947;28;86467;-35
2022/06/21 09:41:52;;;;;;;;;;;21.30;63.90;;;;;;5001653;28;88048;-36
2022/06/21 09:44:21;;;;;;;;;;;21.30;63.80;;;;;;5003955;28;88063;-36
2022/06/21 09:46:46;;;;;;;;;;;21.40;63.70;;;;;;5004452;28;88766;-36
2022/06/21 09:49:31;;;;;;;;;;;21.40;64.00;;;;;;5007440;28;88666;-37
2022/06/21 09:52:11;;;;;;;;;;;21.40;64.00;;;;;;5005175;28;87271;-36
2022/06/21 09:54:38;;;;;;;;;;;21.40;64.00;;;;;;5005375;28;87487;-36
2022/06/21 09:57:03;;;;;;;;;;;21.40;63.50;;;;;;5004522;28;89486;-36
2022/06/21 09:59:46;;;;;;;;;;;21.50;63.80;;;;;;5004991;28;87130;-37
2022/06/21 10:02:32;;;;;;;;;;;21.50;64.00;;;;;;5005444;28;87505;-36
2022/06/21 10:05:10;;;;;;;;;;;21.60;64.00;;;;;;5004662;28;87326;-36
2022/06/21 10:07:50;;;;;;;;;;;21.60;63.80;;;;;;5005006;28;87746;-36
2022/06/21 10:10:36;;;;;;;;;;;21.60;63.80;;;;;;5007512;28;87603;-36
2022/06/21 10:13:08;;;;;;;;;;;21.60;64.00;;;;;;5003577;28;88499;-36
2022/06/21 10:15:47;;;;;;;;;;;21.60;63.60;;;;;;5004894;28;88545;-36
2022/06/21 10:18:16;;;;;;;;;;;21.70;63.40;;;;;;5004414;28;88142;-36
2022/06/21 10:21:00;;;;;;;;;;;21.70;63.90;;;;;;5004950;28;87130;-36
2022/06/21 10:23:34;;;;;;;;;;;21.70;64.00;;;;;;5004631;28;87441;-36
2022/06/21 10:26:18;;;;;;;;;;;21.80;64.00;;;;;;5004505;28;88120;-36
2022/06/21 10:28:50;;;;;;;;;;;21.80;64.10;;;;;;5004714;28;87138;-36
2022/06/21 10:31:15;;;;;;;;;;;21.80;64.20;;;;;;5004897;28;89100;-36
2022/06/21 10:33:47;;;;;;;;;;;21.80;64.10;;;;;;5006969;28;88020;-36
2022/06/21 10:36:48;;;;;;;;;;;21.80;64.00;;;;;;5004364;28;88739;-36
2022/06/21 10:39:24;;;;;;;;;;;21.90;63.90;;;;;;4922497;28;89275;-36
2022/06/21 10:44:41;;;;;;;;;;;21.90;63.70;;;;;;5004508;28;87017;-36
2022/06/21 10:47:11;;;;;;;;;;;21.90;63.40;;;;;;5004427;28;88038;-36
2022/06/21 10:49:53;;;;;;;;;;;21.90;63.80;;;;;;5004026;28;87502;-36
2022/06/21 10:52:21;;;;;;;;;;;22.00;63.90;;;;;;5004392;28;87519;-36
2022/06/21 10:54:54;;;;;;;;;;;21.90;63.80;;;;;;5002753;28;87972;-36
2022/06/21 10:57:38;;;;;;;;;;;22.00;63.70;;;;;;5007887;28;86118;-36
2022/06/21 11:02:54;;;;;;;;;;;22.00;63.80;;;;;;5003630;28;87000;-36
2022/06/21 11:05:31;;;;;;;;;;;22.00;63.80;;;;;;5003283;28;87971;-36
2022/06/21 11:08:15;;;;;;;;;;;22.10;63.80;;;;;;5003815;28;88189;-36
2022/06/21 11:10:43;;;;;;;;;;;22.00;63.80;;;;;;5004108;28;87145;-36
2022/06/21 11:13:14;;;;;;;;;;;22.10;63.90;;;;;;5004157;28;87273;-37
2022/06/21 11:15:57;;;;;;;;;;;22.10;64.00;;;;;;5003169;28;89406;-36
2022/06/21 11:18:23;;;;;;;;;;;22.10;63.90;;;;;;5003812;28;87126;-36
2022/06/21 11:20:57;;;;;;;;;;;22.20;63.90;;;;;;5006158;28;89021;-36
2022/06/21 11:23:44;;;;;;;;;;;22.20;64.00;;;;;;5004551;28;86421;-36
2022/06/21 11:26:21;;;;;;;;;;;22.20;63.80;;;;;;5003755;28;87049;-36
2022/06/21 11:28:47;;;;;;;;;;;22.20;63.70;;;;;;5003603;28;88126;-37
2022/06/21 11:31:27;;;;;;;;;;;22.30;63.70;;;;;;5003151;28;88062;-37
2022/06/21 11:34:11;;;;;;;;;;;22.30;63.90;;;;;;5003764;28;88344;-36
2022/06/21 11:36:47;;;;;;;;;;;22.40;63.60;;;;;;5002899;28;88394;-36
2022/06/21 11:39:34;;;;;;;;;;;22.40;63.80;;;;;;5003484;28;86953;-36
2022/06/21 11:42:18;;;;;;;;;;;22.40;63.70;;;;;;5003622;28;87258;-36
2022/06/21 11:44:52;;;;;;;;;;;22.40;63.80;;;;;;5006260;28;89139;-36
2022/06/21 11:47:34;;;;;;;;;;;22.50;63.70;;;;;;5003547;28;87448;-36
2022/06/21 11:50:06;;;;;;;;;;;22.50;63.80;;;;;;5003132;28;87445;-36
2022/06/21 11:52:34;;;;;;;;;;;22.50;63.70;;;;;;5003347;28;87144;-36
2022/06/21 11:55:13;;;;;;;;;;;22.50;64.00;;;;;;5003239;28;87414;-36
2022/06/21 11:57:41;;;;;;;;;;;22.60;64.00;;;;;;5002199;28;89045;-36
2022/06/21 12:00:34;;;;;;;;;;;22.60;63.90;;;;;;5003075;28;87070;-36
2022/06/21 12:03:02;;;;;;;;;;;22.60;63.90;;;;;;4999853;28;88851;-36
2022/06/21 12:05:41;;;;;;;;;;;22.60;64.60;;;;;;5002646;28;87929;-36
2022/06/21 12:08:13;;;;;;;;;;;22.70;63.90;;;;;;5005987;28;86976;-36
2022/06/21 12:10:38;;;;;;;;;;;22.70;63.70;;;;;;5002707;28;88048;-36
2022/06/21 12:13:13;;;;;;;;;;;22.70;63.90;;;;;;5003156;28;86915;-36
2022/06/21 12:15:38;;;;;;;;;;;22.70;64.00;;;;;;5003544;28;87450;-36
2022/06/21 12:18:18;;;;;;;;;;;22.80;63.80;;;;;;5002690;28;88185;-36
2022/06/21 12:20:46;;;;;;;;;;;22.80;63.70;;;;;;5002810;28;87103;-36
2022/06/21 12:23:23;;;;;;;;;;;22.80;63.70;;;;;;5002286;28;89088;-36
2022/06/21 12:25:49;;;;;;;;;;;22.90;63.90;;;;;;5002777;28;88374;-36
2022/06/21 12:28:17;;;;;;;;;;;22.90;63.80;;;;;;5005840;28;87132;-36
2022/06/21 12:30:42;;;;;;;;;;;22.90;63.80;;;;;;5002319;28;88026;-36
2022/06/21 12:33:09;;;;;;;;;;;22.90;63.80;;;;;;5002636;28;87111;-36
2022/06/21 12:35:37;;;;;;;;;;;22.90;63.70;;;;;;5002901;28;87583;-36
2022/06/21 12:38:03;;;;;;;;;;;22.90;63.70;;;;;;5002513;28;88026;-36
2022/06/21 12:40:36;;;;;;;;;;;22.90;63.80;;;;;;5003220;28;86351;-36
2022/06/21 12:43:17;;;;;;;;;;;23.00;63.70;;;;;;5002628;28;87077;-36
2022/06/21 12:45:53;;;;;;;;;;;23.00;63.80;;;;;;5002180;28;88003;-36
2022/06/21 12:48:25;;;;;;;;;;;23.00;63.70;;;;;;5002399;28;88065;-37
2022/06/21 12:51:11;;;;;;;;;;;23.00;63.70;;;;;;5005095;28;88211;-37
2022/06/21 12:53:36;;;;;;;;;;;23.10;63.70;;;;;;5002473;28;86900;-36
2022/06/21 12:56:08;;;;;;;;;;;23.10;63.60;;;;;;5002354;28;87424;-37
2022/06/21 12:58:33;;;;;;;;;;;23.20;63.60;;;;;;5002006;28;89324;-37
2022/06/21 13:01:02;;;;;;;;;;;23.20;63.60;;;;;;5002177;28;87194;-36
2022/06/21 13:03:30;;;;;;;;;;;23.20;63.50;;;;;;5002268;28;87043;-36
2022/06/21 13:06:15;;;;;;;;;;;23.20;63.50;;;;;;5002535;28;87369;-36
2022/06/21 13:08:43;;;;;;;;;;;23.30;63.70;;;;;;5002127;28;87172;-36
2022/06/21 13:11:27;;;;;;;;;;;23.30;63.60;;;;;;5002004;28;87958;-36
2022/06/21 13:14:05;;;;;;;;;;;23.30;63.70;;;;;;5003950;28;89416;-36
2022/06/21 13:16:39;;;;;;;;;;;23.30;63.80;;;;;;5002371;28;88321;-36
2022/06/21 13:19:24;;;;;;;;;;;23.40;63.70;;;;;;5004183;28;88276;-36
2022/06/21 13:22:22;;;;;;;;;;;23.40;63.70;;;;;;5006032;28;86986;-36
2022/06/21 13:24:50;;;;;;;;;;;23.40;63.70;;;;;;4961051;28;87560;-36
2022/06/21 13:27:16;;;;;;;;;;;23.50;63.70;;;;;;5005324;28;88065;-36
2022/06/21 13:29:53;;;;;;;;;;;23.50;63.70;;;;;;5005577;28;87217;-37
2022/06/21 13:32:23;;;;;;;;;;;23.40;63.80;;;;;;5005987;28;87333;-36
2022/06/21 13:34:56;;;;;;;;;;;23.50;63.70;;;;;;5005233;28;88054;-36
2022/06/21 13:37:22;;;;;;;;;;;23.60;63.80;;;;;;5008650;28;87175;-36
2022/06/21 13:40:06;;;;;;;;;;;23.60;64.40;;;;;;5004082;28;90716;-36
2022/06/21 13:42:45;;;;;;;;;;;23.60;63.70;;;;;;5005656;28;87023;-36
2022/06/21 13:45:14;;;;;;;;;;;23.60;63.80;;;;;;5005301;28;88668;-37
2022/06/21 13:47:51;;;;;;;;;;;23.60;63.70;;;;;;5005054;28;88061;-38
2022/06/21 13:50:42;;;;;;;;;;;23.60;64.80;;;;;;5005087;28;87341;-38
2022/06/21 13:53:10;;;;;;;;;;;23.80;65.60;;;;;;4973276;28;88834;-38
2022/06/21 13:55:45;;;;;;;;;;;23.80;66.30;;;;;;5004711;28;88229;-38
2022/06/21 13:58:16;;;;;;;;;;;24.00;66.10;;;;;;5005542;28;86357;-38
2022/06/21 14:00:47;;;;;;;;;;;24.00;66.40;;;;;;5007525;28;86934;-39
2022/06/21 14:03:36;;;;;;;;;;;24.10;66.20;;;;;;5005294;28;86834;-38
2022/06/21 14:06:12;;;;;;;;;;;24.20;65.50;;;;;;5004595;28;88026;-38
2022/06/21 14:08:42;;;;;;;;;;;24.20;65.70;;;;;;5004540;28;89599;-40
2022/06/21 14:11:27;;;;;;;;;;;24.20;65.50;;;;;;5004639;28;87053;-40
2022/06/21 14:13:53;;;;;;;;;;;24.30;65.10;;;;;;5004735;28;89008;-40
2022/06/21 14:16:40;;;;;;;;;;;24.30;63.90;;;;;;5004749;28;88264;-41
2022/06/21 14:19:18;;;;;;;;;;;24.40;63.80;;;;;;5004383;28;87112;-41
2022/06/21 14:21:44;;;;;;;;;;;24.40;63.30;;;;;;5004516;28;87468;-41
2022/06/21 14:24:10;;;;;;;;;;;24.40;63.60;;;;;;5007875;28;86398;-43
2022/06/21 14:26:38;;;;;;;;;;;24.40;63.50;;;;;;5004864;28;87063;-46
2022/06/21 14:29:04;;;;;;;;;;;24.50;63.80;;;;;;5003365;28;89837;-48
2022/06/21 14:31:31;;;;;;;;;;;24.60;63.80;;;;;;5003547;28;88083;-48
2022/06/21 14:34:08;;;;;;;;;;;24.60;62.80;;;;;;5004606;28;88283;-44
2022/06/21 14:36:40;;;;;;;;;;;24.70;63.30;;;;;;5004344;28;88446;-45
2022/06/21 14:39:10;;;;;;;;;;;24.60;63.30;;;;;;5018561;28;87453;-44
2022/06/21 14:41:38;;;;;;;;;;;24.80;63.80;;;;;;5003086;28;89086;-55
2022/06/21 14:44:15;;;;;;;;;;;24.80;63.70;;;;;;5006748;28;89723;-49
2022/06/21 14:46:44;;;;;;;;;;;24.80;63.90;;;;;;5004111;28;87507;-45
2022/06/21 14:49:20;;;;;;;;;;;25.00;63.00;;;;;;5003946;28;87362;-41
2022/06/21 14:51:51;;;;;;;;;;;25.00;63.20;;;;;;5004687;28;87186;-42
2022/06/21 14:54:21;;;;;;;;;;;24.80;63.50;;;;;;5003815;28;89211;-41
2022/06/21 14:57:05;;;;;;;;;;;24.80;63.90;;;;;;5003049;28;90393;-40
2022/06/21 14:59:40;;;;;;;;;;;24.80;64.10;;;;;;5003583;28;87300;-41